ラパス の空港の天気 - METARとTAF

エル・アルト国際空港 ( SLLP / LPB ) - ボリビア ラパス
飛行場実況気象(Metar)
観測時間06/24 05:00 BOT (06/24 09:00 UTC)
風向・風速北北東 2m/s
視程7000m
天気現象
なし
気温-4℃
湿度39%
気圧1037hPa
METARSLLP 240900Z 02004KT 7000 NSC M04/M16 Q1037
過去の天気等 Google飛行場航空写真 Wunderground天気予報

過去48時間のMETAR

飛行場予報(TAF)
発表時間: 6/24 00:50 BOT (6/24 04:50 UTC)
予報対象時間: 24日2時 BOT ~ 25日2時 BOT
風向・風速北東 3m/s
視程5000m
天気現象
なし
24日11時 BOT ~ 24日13時 BOT に徐々に
風向・風速西南西 5m/s
視程10km以上
天気現象運行に影響にある天気現象が終了
少しの雲 雲底高度 700m
TAF SLLP 240450Z 2406/2506 04005KT 5000 FU NSC TX15/2420Z TNM08/2410Z
BECMG 2415/2417 24010KT 9999 NSW FEW023